Time;durP1;ratioP1;P1;durP2;ratioP2;P2;SDS_P1;SDS_P2;PMS_P1;PMS_P2;Temp;Humidity;BMP_temperature;BMP_pressure;BME280_temperature;BME280_humidity;BME280_pressure;Samples;Min_cycle;Max_cycle;Signal;HPM_P1;HPM_P2
2023/04/19 00:00:20;;;;;;;;;18.75;18.75;;;;;;;;5076304;28;10166;-86
2023/04/19 00:02:47;;;;;;;;;18.75;16.25;;;;;;;;5076954;28;10139;-89
2023/04/19 00:05:15;;;;;;;;;16.25;16.25;;;;;;;;5076744;28;10095;-88
2023/04/19 00:07:42;;;;;;;;;17.75;16.00;;;;;;;;5074115;28;10215;-86
2023/04/19 00:10:10;;;;;;;;;21.00;21.00;;;;;;;;5085201;28;10097;-88
2023/04/19 00:12:37;;;;;;;;;17.00;17.00;;;;;;;;5073051;28;10074;-85
2023/04/19 00:15:06;;;;;;;;;22.50;21.25;;;;;;;;5073420;28;10133;-86
2023/04/19 00:17:36;;;;;;;;;20.25;17.25;;;;;;;;5073459;28;10314;-86
2023/04/19 00:20:04;;;;;;;;;19.00;18.75;;;;;;;;5074252;28;10080;-86
2023/04/19 00:22:32;;;;;;;;;22.75;22.75;;;;;;;;5072641;28;10400;-85
2023/04/19 00:24:59;;;;;;;;;17.00;17.00;;;;;;;;5073981;28;10214;-86
2023/04/19 00:27:26;;;;;;;;;19.25;18.75;;;;;;;;5072542;28;10305;-86
2023/04/19 00:29:53;;;;;;;;;23.25;21.25;;;;;;;;5056704;28;10311;-85
2023/04/19 00:32:21;;;;;;;;;20.25;19.50;;;;;;;;5075243;28;10111;-85
2023/04/19 00:34:49;;;;;;;;;26.50;25.75;;;;;;;;5074998;28;10078;-91
2023/04/19 00:37:17;;;;;;;;;26.00;20.50;;;;;;;;5054553;28;10509;-90
2023/04/19 00:39:44;;;;;;;;;22.50;20.25;;;;;;;;5071755;28;10275;-91
2023/04/19 00:42:11;;;;;;;;;19.25;19.00;;;;;;;;5071889;28;10280;-86
2023/04/19 00:44:39;;;;;;;;;20.75;20.75;;;;;;;;5070952;28;10338;-86
2023/04/19 00:47:06;;;;;;;;;23.75;20.00;;;;;;;;5074161;28;10366;-94
2023/04/19 00:49:33;;;;;;;;;26.50;20.25;;;;;;;;5078285;28;10615;-92
2023/04/19 00:52:02;;;;;;;;;25.00;25.00;;;;;;;;5078284;28;10425;-90
2023/04/19 00:54:31;;;;;;;;;21.50;21.00;;;;;;;;5080097;28;10551;-84
2023/04/19 00:56:58;;;;;;;;;25.75;24.00;;;;;;;;5077214;28;10578;-88
2023/04/19 00:59:26;;;;;;;;;21.75;21.75;;;;;;;;5081266;28;10486;-92
2023/04/19 01:01:53;;;;;;;;;21.50;20.50;;;;;;;;5082329;28;10409;-92
2023/04/19 01:04:21;;;;;;;;;26.00;22.25;;;;;;;;5077591;28;10549;-93
2023/04/19 01:06:49;;;;;;;;;21.50;19.50;;;;;;;;5075068;28;10535;-94
2023/04/19 01:09:21;;;;;;;;;34.25;31.00;;;;;;;;5079636;28;10649;-84
2023/04/19 01:11:50;;;;;;;;;31.25;28.50;;;;;;;;5076611;28;10785;-93
2023/04/19 01:14:18;;;;;;;;;23.00;21.00;;;;;;;;5082111;28;10705;-86
2023/04/19 01:16:49;;;;;;;;;30.25;25.50;;;;;;;;5084922;28;10707;-85
2023/04/19 01:19:17;;;;;;;;;20.00;18.25;;;;;;;;5081130;28;10572;-90
2023/04/19 01:21:45;;;;;;;;;25.50;25.25;;;;;;;;5072243;28;10753;-91
2023/04/19 01:24:14;;;;;;;;;26.50;24.50;;;;;;;;5074340;28;10721;-86
2023/04/19 01:26:41;;;;;;;;;22.25;22.25;;;;;;;;5076274;28;11463;-93
2023/04/19 01:29:09;;;;;;;;;14.75;14.75;;;;;;;;5083364;28;10551;-89
2023/04/19 01:31:37;;;;;;;;;23.75;20.00;;;;;;;;5081718;28;10540;-90
2023/04/19 01:34:05;;;;;;;;;26.50;25.75;;;;;;;;5081940;28;10662;-93
2023/04/19 01:36:32;;;;;;;;;19.75;18.00;;;;;;;;5077562;28;10806;-96
2023/04/19 01:38:59;;;;;;;;;20.75;20.75;;;;;;;;5073966;28;10714;-96
2023/04/19 01:41:28;;;;;;;;;22.75;21.25;;;;;;;;5086434;28;10729;-94
2023/04/19 01:43:55;;;;;;;;;33.25;30.25;;;;;;;;5086066;28;10809;-94
2023/04/19 01:46:23;;;;;;;;;24.25;22.25;;;;;;;;5084623;28;10980;-95
2023/04/19 01:48:54;;;;;;;;;23.25;23.25;;;;;;;;5078426;28;10871;-85
2023/04/19 01:51:25;;;;;;;;;19.75;19.75;;;;;;;;5078880;28;10957;-85
2023/04/19 01:53:58;;;;;;;;;26.50;26.50;;;;;;;;5075352;28;10920;-86
2023/04/19 01:56:26;;;;;;;;;25.00;22.50;;;;;;;;5074171;28;10973;-84
2023/04/19 01:58:54;;;;;;;;;12.00;12.00;;;;;;;;5088870;28;10960;-87
2023/04/19 02:01:21;;;;;;;;;21.75;18.00;;;;;;;;5078691;28;10813;-88
2023/04/19 02:03:49;;;;;;;;;19.75;19.75;;;;;;;;5076910;28;11162;-85
2023/04/19 02:06:16;;;;;;;;;23.25;20.25;;;;;;;;5074671;28;11044;-88
2023/04/19 02:08:44;;;;;;;;;21.50;21.00;;;;;;;;5079257;28;11045;-85
2023/04/19 02:11:13;;;;;;;;;17.75;16.25;;;;;;;;5072933;28;10971;-91
2023/04/19 02:13:42;;;;;;;;;19.75;19.25;;;;;;;;5073075;28;10997;-84
2023/04/19 02:16:10;;;;;;;;;20.50;20.50;;;;;;;;5074514;28;11132;-85
2023/04/19 02:18:40;;;;;;;;;20.25;16.75;;;;;;;;5073772;28;11112;-85
2023/04/19 02:21:08;;;;;;;;;16.25;16.25;;;;;;;;5074564;28;11066;-85
2023/04/19 02:23:36;;;;;;;;;20.25;17.25;;;;;;;;5064642;28;11015;-89
2023/04/19 02:26:03;;;;;;;;;19.50;16.50;;;;;;;;5069727;28;11014;-91
2023/04/19 02:28:31;;;;;;;;;19.75;19.75;;;;;;;;5073424;28;10966;-88
2023/04/19 02:31:04;;;;;;;;;20.50;17.75;;;;;;;;5074403;28;10983;-91
2023/04/19 02:33:31;;;;;;;;;18.25;15.75;;;;;;;;5070200;28;10888;-86
2023/04/19 02:35:59;;;;;;;;;18.75;17.25;;;;;;;;5072322;28;11008;-90
2023/04/19 02:38:26;;;;;;;;;14.50;14.50;;;;;;;;5060113;28;11044;-89
2023/04/19 02:40:53;;;;;;;;;23.75;22.75;;;;;;;;5069329;28;11066;-91
2023/04/19 02:43:21;;;;;;;;;18.25;18.25;;;;;;;;5072096;28;11062;-85
2023/04/19 02:45:48;;;;;;;;;25.50;23.50;;;;;;;;5074951;28;11176;-91
2023/04/19 02:48:16;;;;;;;;;27.25;19.50;;;;;;;;5080317;28;11126;-90
2023/04/19 02:50:44;;;;;;;;;19.75;16.25;;;;;;;;5073856;28;11188;-87
2023/04/19 02:53:14;;;;;;;;;24.00;22.50;;;;;;;;5072797;28;11105;-83
2023/04/19 02:55:41;;;;;;;;;23.25;20.00;;;;;;;;5073732;28;11270;-83
2023/04/19 02:58:12;;;;;;;;;24.00;23.75;;;;;;;;5072117;28;11167;-82
2023/04/19 03:00:42;;;;;;;;;23.75;21.00;;;;;;;;5070188;28;11521;-89
2023/04/19 03:03:10;;;;;;;;;21.25;21.25;;;;;;;;5070701;28;11300;-88
2023/04/19 03:05:38;;;;;;;;;19.75;19.75;;;;;;;;5071535;28;11216;-92
2023/04/19 03:08:05;;;;;;;;;29.75;22.25;;;;;;;;5069915;28;11163;-86
2023/04/19 03:10:33;;;;;;;;;15.25;15.25;;;;;;;;5068146;28;11573;-93
2023/04/19 03:13:00;;;;;;;;;21.50;21.50;;;;;;;;5069669;28;11548;-90
2023/04/19 03:15:27;;;;;;;;;24.00;24.00;;;;;;;;5058389;28;11297;-92
2023/04/19 03:17:57;;;;;;;;;23.00;23.00;;;;;;;;5068957;28;11548;-93
2023/04/19 03:20:25;;;;;;;;;24.00;23.50;;;;;;;;5057665;28;11445;-93
2023/04/19 03:22:54;;;;;;;;;32.00;28.75;;;;;;;;5069152;28;11454;-94
2023/04/19 03:25:22;;;;;;;;;20.75;20.75;;;;;;;;5071976;28;12225;-94
2023/04/19 03:27:50;;;;;;;;;23.25;23.25;;;;;;;;5089074;28;11455;-88
2023/04/19 03:30:18;;;;;;;;;28.75;26.25;;;;;;;;5094845;28;11408;-94
2023/04/19 03:32:47;;;;;;;;;27.75;25.75;;;;;;;;5092754;28;11571;-89
2023/04/19 03:35:14;;;;;;;;;27.25;24.25;;;;;;;;5090620;28;11571;-93
2023/04/19 03:37:42;;;;;;;;;26.75;24.75;;;;;;;;5075822;28;11437;-93
2023/04/19 03:40:12;;;;;;;;;23.25;23.25;;;;;;;;5078040;28;11434;-88
2023/04/19 03:42:39;;;;;;;;;22.25;19.00;;;;;;;;5071019;28;11430;-88
2023/04/19 03:45:08;;;;;;;;;28.50;28.50;;;;;;;;5078705;28;11408;-86
2023/04/19 03:47:35;;;;;;;;;27.00;23.50;;;;;;;;5073506;28;11482;-86
2023/04/19 03:50:02;;;;;;;;;26.00;24.00;;;;;;;;5076276;28;11534;-86
2023/04/19 03:52:30;;;;;;;;;23.75;18.25;;;;;;;;5075889;28;11592;-86
2023/04/19 03:54:57;;;;;;;;;22.50;21.00;;;;;;;;5074128;28;11468;-85
2023/04/19 03:57:28;;;;;;;;;23.00;20.00;;;;;;;;5084925;28;11563;-85
2023/04/19 03:59:58;;;;;;;;;18.00;18.00;;;;;;;;5073075;28;11423;-87
2023/04/19 04:02:25;;;;;;;;;23.50;21.75;;;;;;;;5071321;28;11498;-75
2023/04/19 04:04:54;;;;;;;;;17.25;16.25;;;;;;;;5074786;28;11440;-83
2023/04/19 04:07:23;;;;;;;;;22.25;22.25;;;;;;;;5070235;28;11319;-80
2023/04/19 04:09:50;;;;;;;;;24.00;22.75;;;;;;;;5070580;28;11524;-80
2023/04/19 04:12:18;;;;;;;;;22.50;18.50;;;;;;;;5070278;28;12198;-76
2023/04/19 04:14:46;;;;;;;;;21.00;21.00;;;;;;;;5069751;28;11444;-78
2023/04/19 04:17:13;;;;;;;;;19.00;19.00;;;;;;;;5070491;28;11536;-75
2023/04/19 04:19:40;;;;;;;;;26.00;22.75;;;;;;;;5069116;28;11539;-76
2023/04/19 04:22:08;;;;;;;;;23.00;23.00;;;;;;;;5069741;28;11447;-78
2023/04/19 04:24:40;;;;;;;;;21.00;19.50;;;;;;;;5070994;28;11472;-74
2023/04/19 04:27:08;;;;;;;;;22.00;18.50;;;;;;;;5070456;28;11633;-74
2023/04/19 04:29:36;;;;;;;;;24.00;24.00;;;;;;;;5070155;28;11439;-73
2023/04/19 04:32:07;;;;;;;;;24.00;23.25;;;;;;;;5069854;28;11429;-74
2023/04/19 04:34:34;;;;;;;;;17.25;14.00;;;;;;;;5071269;28;11454;-74
2023/04/19 04:37:01;;;;;;;;;22.00;22.00;;;;;;;;5070918;28;11425;-77
2023/04/19 04:39:29;;;;;;;;;19.00;18.25;;;;;;;;5071478;28;11457;-74
2023/04/19 04:41:58;;;;;;;;;24.00;22.50;;;;;;;;5070871;28;11452;-73
2023/04/19 04:44:26;;;;;;;;;28.50;28.00;;;;;;;;5071407;28;11547;-74
2023/04/19 04:46:53;;;;;;;;;24.50;24.50;;;;;;;;5070603;28;12272;-74
2023/04/19 04:49:22;;;;;;;;;27.75;25.50;;;;;;;;5070730;28;11509;-74
2023/04/19 04:51:49;;;;;;;;;26.50;26.50;;;;;;;;5070834;28;11442;-73
2023/04/19 04:54:16;;;;;;;;;19.00;17.50;;;;;;;;5070962;28;11429;-74
2023/04/19 04:56:43;;;;;;;;;31.25;25.50;;;;;;;;5068250;28;11452;-77
2023/04/19 04:59:10;;;;;;;;;25.25;23.25;;;;;;;;5068302;28;11743;-78
2023/04/19 05:01:37;;;;;;;;;22.50;19.25;;;;;;;;5068767;28;11372;-82
2023/04/19 05:04:05;;;;;;;;;26.00;20.25;;;;;;;;5058314;28;11417;-79
2023/04/19 05:06:33;;;;;;;;;17.00;17.00;;;;;;;;5068836;28;11495;-78
2023/04/19 05:09:01;;;;;;;;;23.00;23.00;;;;;;;;5068791;28;11478;-81
2023/04/19 05:11:28;;;;;;;;;19.75;19.75;;;;;;;;5068626;28;11467;-76
2023/04/19 05:13:55;;;;;;;;;25.50;24.50;;;;;;;;5069497;28;11409;-80
2023/04/19 05:16:22;;;;;;;;;20.75;19.50;;;;;;;;5069042;28;11439;-78
2023/04/19 05:18:50;;;;;;;;;20.25;18.25;;;;;;;;5069411;28;11414;-83
2023/04/19 05:21:17;;;;;;;;;26.50;23.25;;;;;;;;5069554;28;11493;-81
2023/04/19 05:23:45;;;;;;;;;23.25;19.25;;;;;;;;5061435;28;11449;-87
2023/04/19 05:26:14;;;;;;;;;28.00;26.25;;;;;;;;5080358;28;11543;-77
2023/04/19 05:28:41;;;;;;;;;22.50;22.50;;;;;;;;5070802;28;11454;-76
2023/04/19 05:31:09;;;;;;;;;28.25;26.50;;;;;;;;5076201;28;11365;-74
2023/04/19 05:33:36;;;;;;;;;24.25;19.00;;;;;;;;5079294;28;11442;-74
2023/04/19 05:36:04;;;;;;;;;25.25;20.75;;;;;;;;5067386;28;11409;-73
2023/04/19 05:38:31;;;;;;;;;26.25;24.50;;;;;;;;5085115;28;11418;-74
2023/04/19 05:40:59;;;;;;;;;19.75;18.00;;;;;;;;5075887;28;11404;-72
2023/04/19 05:43:27;;;;;;;;;25.00;24.00;;;;;;;;5077104;28;11448;-73
2023/04/19 05:45:54;;;;;;;;;23.50;19.25;;;;;;;;5067062;28;11568;-72
2023/04/19 05:48:21;;;;;;;;;25.00;23.75;;;;;;;;5066690;28;11445;-72
2023/04/19 05:50:48;;;;;;;;;24.00;21.50;;;;;;;;5076116;28;11473;-72
2023/04/19 05:53:16;;;;;;;;;28.50;25.25;;;;;;;;5080725;28;11431;-71
2023/04/19 05:55:44;;;;;;;;;21.50;21.50;;;;;;;;5076141;28;11449;-74
2023/04/19 05:58:12;;;;;;;;;18.75;18.75;;;;;;;;5067963;28;11520;-73
2023/04/19 06:00:40;;;;;;;;;25.75;25.75;;;;;;;;5068330;28;11568;-72
2023/04/19 06:03:07;;;;;;;;;32.25;27.75;;;;;;;;5067863;28;11479;-73
2023/04/19 06:05:35;;;;;;;;;26.25;21.00;;;;;;;;5067497;28;11531;-71
2023/04/19 06:08:02;;;;;;;;;21.50;18.50;;;;;;;;5066959;28;11420;-74
2023/04/19 06:10:29;;;;;;;;;24.25;21.75;;;;;;;;5067930;28;11455;-71
2023/04/19 06:12:57;;;;;;;;;23.25;20.75;;;;;;;;5067966;28;11480;-71
2023/04/19 06:15:25;;;;;;;;;21.00;21.00;;;;;;;;5068145;28;11452;-71
2023/04/19 06:17:53;;;;;;;;;21.25;20.75;;;;;;;;5068602;28;11509;-73
2023/04/19 06:20:20;;;;;;;;;23.75;20.25;;;;;;;;5068710;28;11641;-72
2023/04/19 06:22:48;;;;;;;;;18.75;17.25;;;;;;;;5069520;28;11468;-72
2023/04/19 06:25:15;;;;;;;;;25.25;24.00;;;;;;;;5067913;28;11413;-71
2023/04/19 06:27:43;;;;;;;;;26.00;26.00;;;;;;;;5069515;28;11534;-71
2023/04/19 06:30:11;;;;;;;;;29.75;23.50;;;;;;;;5056558;28;12329;-75
2023/04/19 06:32:40;;;;;;;;;26.50;26.50;;;;;;;;5068100;28;11184;-72
2023/04/19 06:35:08;;;;;;;;;27.25;26.25;;;;;;;;5069126;28;11429;-73
2023/04/19 06:37:35;;;;;;;;;22.00;21.00;;;;;;;;5069345;28;12104;-72
2023/04/19 06:40:03;;;;;;;;;21.25;21.00;;;;;;;;5068441;28;11465;-72
2023/04/19 06:42:31;;;;;;;;;19.50;19.50;;;;;;;;5069158;28;11065;-71
2023/04/19 06:44:58;;;;;;;;;20.75;19.50;;;;;;;;5067917;28;11135;-71
2023/04/19 06:47:25;;;;;;;;;24.25;22.25;;;;;;;;5068422;28;11168;-74
2023/04/19 06:49:54;;;;;;;;;27.25;23.50;;;;;;;;5068036;28;11031;-73
2023/04/19 06:52:21;;;;;;;;;21.75;21.75;;;;;;;;5067813;28;11203;-78
2023/04/19 06:54:48;;;;;;;;;21.50;21.50;;;;;;;;5067941;28;11126;-72
2023/04/19 06:57:16;;;;;;;;;26.00;26.00;;;;;;;;5065671;28;10859;-75
2023/04/19 06:59:43;;;;;;;;;22.75;22.00;;;;;;;;5066968;28;11120;-77
2023/04/19 07:02:10;;;;;;;;;23.50;21.25;;;;;;;;5066016;28;10880;-72
2023/04/19 07:04:38;;;;;;;;;22.00;19.50;;;;;;;;5067174;28;11288;-75
2023/04/19 07:07:06;;;;;;;;;22.50;21.50;;;;;;;;5067168;28;10966;-78
2023/04/19 07:09:33;;;;;;;;;23.00;21.25;;;;;;;;5067141;28;10812;-76
2023/04/19 07:12:01;;;;;;;;;21.50;21.50;;;;;;;;5067023;28;11246;-78
2023/04/19 07:14:28;;;;;;;;;15.50;15.25;;;;;;;;5076368;28;10699;-72
2023/04/19 07:16:55;;;;;;;;;22.00;20.00;;;;;;;;5071960;28;10523;-78
2023/04/19 07:19:22;;;;;;;;;23.75;21.50;;;;;;;;5087247;28;10579;-78
2023/04/19 07:21:51;;;;;;;;;29.50;25.00;;;;;;;;5088221;28;10830;-76
2023/04/19 07:24:19;;;;;;;;;18.75;17.25;;;;;;;;5087070;28;10522;-77
2023/04/19 07:26:46;;;;;;;;;18.75;17.00;;;;;;;;5070744;28;10522;-73
2023/04/19 07:29:14;;;;;;;;;22.25;20.75;;;;;;;;5078125;28;10392;-71
2023/04/19 07:31:41;;;;;;;;;18.00;18.00;;;;;;;;5080947;28;10384;-72
2023/04/19 07:34:09;;;;;;;;;19.50;18.00;;;;;;;;5083587;28;10419;-72
2023/04/19 07:36:37;;;;;;;;;18.75;18.75;;;;;;;;5077052;28;10233;-72
2023/04/19 07:39:05;;;;;;;;;21.75;20.00;;;;;;;;5083266;28;10106;-73
2023/04/19 07:41:33;;;;;;;;;23.75;21.25;;;;;;;;5076945;28;11084;-73
2023/04/19 07:44:00;;;;;;;;;25.25;23.50;;;;;;;;5077332;28;10252;-71
2023/04/19 07:46:28;;;;;;;;;24.50;22.25;;;;;;;;5077528;28;10013;-72
2023/04/19 07:48:55;;;;;;;;;21.50;19.50;;;;;;;;5083245;28;10192;-71
2023/04/19 07:51:23;;;;;;;;;20.00;16.75;;;;;;;;5077240;28;10105;-72
2023/04/19 07:53:51;;;;;;;;;21.25;19.75;;;;;;;;5082741;28;9992;-73
2023/04/19 07:56:18;;;;;;;;;21.75;21.25;;;;;;;;5073782;28;10135;-72
2023/04/19 07:58:47;;;;;;;;;16.25;16.25;;;;;;;;5069982;28;10131;-73
2023/04/19 08:01:15;;;;;;;;;20.75;20.00;;;;;;;;5069383;28;9967;-73
2023/04/19 08:03:42;;;;;;;;;18.00;17.00;;;;;;;;5069210;28;9903;-71
2023/04/19 08:06:09;;;;;;;;;19.25;17.50;;;;;;;;5062140;28;10026;-73
2023/04/19 08:08:37;;;;;;;;;18.50;17.50;;;;;;;;5070988;28;9917;-74
2023/04/19 08:11:06;;;;;;;;;16.50;16.50;;;;;;;;5070975;28;10507;-71
2023/04/19 08:13:33;;;;;;;;;20.25;18.75;;;;;;;;5070661;28;9857;-76
2023/04/19 08:16:02;;;;;;;;;15.50;15.50;;;;;;;;5071372;28;9769;-73
2023/04/19 08:18:29;;;;;;;;;19.75;18.75;;;;;;;;5072576;28;9544;-72
2023/04/19 08:20:57;;;;;;;;;18.50;16.75;;;;;;;;5060407;28;9618;-74
2023/04/19 08:23:24;;;;;;;;;15.50;13.50;;;;;;;;5070928;28;9704;-71
2023/04/19 08:25:51;;;;;;;;;22.00;18.00;;;;;;;;5070666;28;9653;-71
2023/04/19 08:28:19;;;;;;;;;21.33;18.00;;;;;;;;5072150;28;10345;-76
2023/04/19 08:30:48;;;;;;;;;19.00;15.67;;;;;;;;5069157;28;9332;-72
2023/04/19 08:33:16;;;;;;;;;20.33;17.00;;;;;;;;5070798;28;9250;-71
2023/04/19 08:35:44;;;;;;;;;16.67;16.67;;;;;;;;5069095;28;9326;-71
2023/04/19 08:38:11;;;;;;;;;17.33;17.33;;;;;;;;5071205;28;9203;-72
2023/04/19 08:40:44;;;;;;;;;18.67;18.67;;;;;;;;5071284;28;9320;-71
2023/04/19 08:43:11;;;;;;;;;18.00;13.00;;;;;;;;5060084;28;9228;-73
2023/04/19 08:45:38;;;;;;;;;13.67;13.67;;;;;;;;5072841;28;9218;-76
2023/04/19 08:48:08;;;;;;;;;18.00;18.00;;;;;;;;5071316;28;9095;-76
2023/04/19 08:50:37;;;;;;;;;19.67;16.67;;;;;;;;5073569;28;9067;-72
2023/04/19 08:53:05;;;;;;;;;12.00;10.50;;;;;;;;5061224;28;8973;-74
2023/04/19 08:55:32;;;;;;;;;17.50;17.50;;;;;;;;5067621;28;8830;-76
2023/04/19 08:58:00;;;;;;;;;17.67;16.00;;;;;;;;5069004;28;8866;-77
2023/04/19 09:00:27;;;;;;;;;14.00;14.00;;;;;;;;5070493;28;8918;-72
2023/04/19 09:02:54;;;;;;;;;15.25;12.25;;;;;;;;5069732;28;9015;-77
2023/04/19 09:05:22;;;;;;;;;14.33;14.33;;;;;;;;5070816;28;8911;-78
2023/04/19 09:07:50;;;;;;;;;15.25;15.25;;;;;;;;5078134;28;9121;-76
2023/04/19 09:10:19;;;;;;;;;16.25;16.25;;;;;;;;5069285;28;8854;-78
2023/04/19 09:13:01;;;;;;;;;14.00;14.00;;;;;;;;5067043;28;8824;-78
2023/04/19 09:15:37;;;;;;;;;17.50;17.50;;;;;;;;5082976;28;8846;-78
2023/04/19 09:18:05;;;;;;;;;16.25;11.50;;;;;;;;5088720;28;8986;-76
2023/04/19 09:20:37;;;;;;;;;15.00;12.25;;;;;;;;5075170;28;8822;-74
2023/04/19 09:23:06;;;;;;;;;16.75;14.50;;;;;;;;5066831;28;8824;-72
2023/04/19 09:25:34;;;;;;;;;12.25;11.25;;;;;;;;5067998;28;8968;-72
2023/04/19 09:28:11;;;;;;;;;17.25;17.25;;;;;;;;5077918;28;8848;-71
2023/04/19 09:30:39;;;;;;;;;12.50;12.50;;;;;;;;5067594;28;8747;-71
2023/04/19 09:33:07;;;;;;;;;15.75;11.75;;;;;;;;5068089;28;8950;-71
2023/04/19 09:35:41;;;;;;;;;15.75;12.75;;;;;;;;5067967;28;8834;-71
2023/04/19 09:38:10;;;;;;;;;14.75;14.75;;;;;;;;5067282;28;8848;-71
2023/04/19 09:40:39;;;;;;;;;12.25;12.25;;;;;;;;5068181;28;8914;-72
2023/04/19 09:43:06;;;;;;;;;15.00;13.00;;;;;;;;5067328;28;8830;-72
2023/04/19 09:45:43;;;;;;;;;13.75;13.75;;;;;;;;5068081;28;8858;-73
2023/04/19 09:48:11;;;;;;;;;14.00;14.00;;;;;;;;5067885;28;9466;-71
2023/04/19 09:50:54;;;;;;;;;8.00;8.00;;;;;;;;5058538;28;8830;-72
2023/04/19 09:53:23;;;;;;;;;14.25;14.00;;;;;;;;5068715;28;8838;-72
2023/04/19 09:55:51;;;;;;;;;10.75;10.00;;;;;;;;5067790;28;8900;-71
2023/04/19 09:58:19;;;;;;;;;12.25;12.25;;;;;;;;5067962;28;8839;-71
2023/04/19 10:00:46;;;;;;;;;10.25;10.00;;;;;;;;5067027;28;8810;-73
2023/04/19 10:03:14;;;;;;;;;12.00;11.25;;;;;;;;5067659;28;8858;-76
2023/04/19 10:05:43;;;;;;;;;11.00;11.00;;;;;;;;5067890;28;8822;-73
2023/04/19 10:08:11;;;;;;;;;13.75;11.75;;;;;;;;5067926;28;8845;-71
2023/04/19 10:10:41;;;;;;;;;9.00;9.00;;;;;;;;5067967;28;8842;-72
2023/04/19 10:13:12;;;;;;;;;14.50;11.75;;;;;;;;5055579;28;8844;-71
2023/04/19 10:15:39;;;;;;;;;11.50;10.00;;;;;;;;5059613;28;8856;-73
2023/04/19 10:18:07;;;;;;;;;7.00;7.00;;;;;;;;5064311;28;8848;-71
2023/04/19 10:20:39;;;;;;;;;8.50;8.50;;;;;;;;5067670;28;8846;-73
2023/04/19 10:23:08;;;;;;;;;10.00;8.75;;;;;;;;5067267;28;8842;-71
2023/04/19 10:25:38;;;;;;;;;10.75;10.75;;;;;;;;5067048;28;8854;-72
2023/04/19 10:28:06;;;;;;;;;11.75;10.75;;;;;;;;5066914;28;8842;-71
2023/04/19 10:30:34;;;;;;;;;10.50;8.00;;;;;;;;5067412;28;8791;-73
2023/04/19 10:33:02;;;;;;;;;7.00;7.00;;;;;;;;5067118;28;8862;-71
2023/04/19 10:35:36;;;;;;;;;7.50;7.50;;;;;;;;5067634;28;8972;-74
2023/04/19 10:38:05;;;;;;;;;8.00;8.00;;;;;;;;5055213;28;8868;-73
2023/04/19 10:40:55;;;;;;;;;7.00;7.00;;;;;;;;5067268;28;8862;-71
2023/04/19 10:43:25;;;;;;;;;9.25;6.50;;;;;;;;5049241;28;9250;-77
2023/04/19 10:45:53;;;;;;;;;7.00;6.25;;;;;;;;5069445;28;9281;-74
2023/04/19 10:48:42;;;;;;;;;6.25;6.25;;;;;;;;5067436;28;8946;-78
2023/04/19 10:51:14;;;;;;;;;6.00;6.00;;;;;;;;5069314;28;8858;-71
2023/04/19 10:53:51;;;;;;;;;6.50;4.00;;;;;;;;5071301;28;8844;-76
2023/04/19 10:56:20;;;;;;;;;4.25;4.25;;;;;;;;5071739;28;8942;-75
2023/04/19 10:59:23;;;;;;;;;4.25;4.25;;;;;;;;5072635;28;8897;-77
2023/04/19 11:01:52;;;;;;;;;5.00;5.00;;;;;;;;5072463;28;8814;-74
2023/04/19 11:04:21;;;;;;;;;4.00;3.00;;;;;;;;5072522;28;8960;-77
2023/04/19 11:07:01;;;;;;;;;5.00;5.00;;;;;;;;5073234;28;8826;-78
2023/04/19 11:09:30;;;;;;;;;4.25;4.25;;;;;;;;5073386;28;8919;-78
2023/04/19 11:11:59;;;;;;;;;5.50;4.50;;;;;;;;5073768;28;9008;-77
2023/04/19 11:14:31;;;;;;;;;3.80;3.00;;;;;;;;5063741;28;8864;-73
2023/04/19 11:16:58;;;;;;;;;5.80;5.00;;;;;;;;5070622;28;8845;-72
2023/04/19 11:19:25;;;;;;;;;6.00;6.00;;;;;;;;5077418;28;8844;-72
2023/04/19 11:21:52;;;;;;;;;6.40;5.00;;;;;;;;5078721;28;8874;-73
2023/04/19 11:24:20;;;;;;;;;6.80;6.80;;;;;;;;5070064;28;8833;-74
2023/04/19 11:26:48;;;;;;;;;5.80;5.80;;;;;;;;5070604;28;8840;-72
2023/04/19 11:29:15;;;;;;;;;7.80;7.00;;;;;;;;5070516;28;8846;-71
2023/04/19 11:31:46;;;;;;;;;8.00;6.40;;;;;;;;5069987;28;8856;-71
2023/04/19 11:34:13;;;;;;;;;6.80;6.80;;;;;;;;5070214;28;8838;-73
2023/04/19 11:36:48;;;;;;;;;6.40;5.40;;;;;;;;5070350;28;8858;-74
2023/04/19 11:39:15;;;;;;;;;6.00;6.00;;;;;;;;5069678;28;8862;-76
2023/04/19 11:41:43;;;;;;;;;6.80;6.80;;;;;;;;5070289;28;8846;-72
2023/04/19 11:44:18;;;;;;;;;7.00;7.00;;;;;;;;5070328;28;8860;-71
2023/04/19 11:46:59;;;;;;;;;5.60;5.60;;;;;;;;5070300;28;8875;-72
2023/04/19 11:49:28;;;;;;;;;5.20;5.20;;;;;;;;5073903;28;8857;-72
2023/04/19 11:51:59;;;;;;;;;5.00;5.00;;;;;;;;5070250;28;8849;-73
2023/04/19 11:54:26;;;;;;;;;6.00;6.00;;;;;;;;5070406;28;8849;-77
2023/04/19 11:57:04;;;;;;;;;5.00;5.00;;;;;;;;5070593;28;8881;-72
2023/04/19 11:59:32;;;;;;;;;4.00;4.00;;;;;;;;5060025;28;8841;-75
2023/04/19 12:02:12;;;;;;;;;7.00;5.00;;;;;;;;5069682;28;8904;-74
2023/04/19 12:04:39;;;;;;;;;7.60;7.60;;;;;;;;5070165;28;8878;-74
2023/04/19 12:07:07;;;;;;;;;4.00;4.00;;;;;;;;5058064;28;9568;-71
2023/04/19 12:09:35;;;;;;;;;5.80;5.80;;;;;;;;5071136;28;8868;-74
2023/04/19 12:12:03;;;;;;;;;5.00;5.00;;;;;;;;5071301;28;8882;-71
2023/04/19 12:14:30;;;;;;;;;5.00;5.00;;;;;;;;5069166;28;8853;-71
2023/04/19 12:17:09;;;;;;;;;4.40;4.40;;;;;;;;5071239;28;8846;-74
2023/04/19 12:19:38;;;;;;;;;6.40;4.80;;;;;;;;5069859;28;8864;-71
2023/04/19 12:22:09;;;;;;;;;4.60;4.60;;;;;;;;5058482;28;8830;-72
2023/04/19 12:24:38;;;;;;;;;6.20;6.20;;;;;;;;5069907;28;8839;-72
2023/04/19 12:27:05;;;;;;;;;7.00;7.00;;;;;;;;5069508;28;8834;-72
2023/04/19 12:29:35;;;;;;;;;6.00;6.00;;;;;;;;5057645;28;8913;-73
2023/04/19 12:32:02;;;;;;;;;5.40;5.40;;;;;;;;5059966;28;8822;-76
2023/04/19 12:34:31;;;;;;;;;5.80;5.80;;;;;;;;5069814;28;8826;-76
2023/04/19 12:36:58;;;;;;;;;5.80;5.80;;;;;;;;5069418;28;8846;-75
2023/04/19 12:39:25;;;;;;;;;4.00;4.00;;;;;;;;5069540;28;8862;-72
2023/04/19 12:41:52;;;;;;;;;4.20;4.20;;;;;;;;5069734;28;8858;-77
2023/04/19 12:44:19;;;;;;;;;4.80;4.80;;;;;;;;5069285;28;8880;-76
2023/04/19 12:46:47;;;;;;;;;6.40;4.40;;;;;;;;5069758;28;8856;-77
2023/04/19 12:49:14;;;;;;;;;6.20;6.20;;;;;;;;5065182;28;8864;-78
2023/04/19 12:51:42;;;;;;;;;6.00;6.00;;;;;;;;5061647;28;8985;-76
2023/04/19 12:54:09;;;;;;;;;6.20;6.20;;;;;;;;5068826;28;8842;-77
2023/04/19 12:56:37;;;;;;;;;6.00;6.00;;;;;;;;5069138;28;8854;-76
2023/04/19 12:59:04;;;;;;;;;4.60;4.60;;;;;;;;5071194;28;8864;-78
2023/04/19 13:01:32;;;;;;;;;7.20;5.60;;;;;;;;5080820;28;8827;-77
2023/04/19 13:03:59;;;;;;;;;6.50;6.00;;;;;;;;5082658;28;8860;-76
2023/04/19 13:06:26;;;;;;;;;4.75;4.75;;;;;;;;5082665;28;8840;-77
2023/04/19 13:08:55;;;;;;;;;5.00;5.00;;;;;;;;5069656;28;8842;-77
2023/04/19 13:11:22;;;;;;;;;6.25;6.25;;;;;;;;5074837;28;8863;-72
2023/04/19 13:13:51;;;;;;;;;4.50;4.50;;;;;;;;5077404;28;8818;-72
2023/04/19 13:16:19;;;;;;;;;4.25;4.25;;;;;;;;5075392;28;9667;-72
2023/04/19 13:18:47;;;;;;;;;6.75;5.00;;;;;;;;5062113;28;8932;-72
2023/04/19 13:21:14;;;;;;;;;3.75;3.50;;;;;;;;5087504;28;8828;-73
2023/04/19 13:23:43;;;;;;;;;5.00;5.00;;;;;;;;5087928;28;8832;-72
2023/04/19 13:26:12;;;;;;;;;5.25;5.25;;;;;;;;5073064;28;8957;-72
2023/04/19 13:28:40;;;;;;;;;5.25;5.25;;;;;;;;5079464;28;8854;-71
2023/04/19 13:31:07;;;;;;;;;6.00;6.00;;;;;;;;5081276;28;8818;-74
2023/04/19 13:33:34;;;;;;;;;4.75;4.75;;;;;;;;5079143;28;8866;-72
2023/04/19 13:36:01;;;;;;;;;4.60;4.60;;;;;;;;5082873;28;8878;-72
2023/04/19 13:38:29;;;;;;;;;5.00;5.00;;;;;;;;5087360;28;8855;-72
2023/04/19 13:40:56;;;;;;;;;4.00;3.00;;;;;;;;5087006;28;8864;-72
2023/04/19 13:43:25;;;;;;;;;5.00;5.00;;;;;;;;5088249;28;8898;-74
2023/04/19 13:45:52;;;;;;;;;5.00;5.00;;;;;;;;5086418;28;8840;-72
2023/04/19 13:48:19;;;;;;;;;6.40;5.60;;;;;;;;5087095;28;8886;-73
2023/04/19 13:50:46;;;;;;;;;3.00;3.00;;;;;;;;5085932;28;9598;-71
2023/04/19 13:53:13;;;;;;;;;4.80;4.80;;;;;;;;5087234;28;8873;-72
2023/04/19 13:55:40;;;;;;;;;6.25;6.00;;;;;;;;5081607;28;8953;-73
2023/04/19 13:58:07;;;;;;;;;5.00;5.00;;;;;;;;5076063;28;8900;-72
2023/04/19 14:00:36;;;;;;;;;6.50;5.25;;;;;;;;5072051;28;8774;-72
2023/04/19 14:03:04;;;;;;;;;5.00;5.00;;;;;;;;5079907;28;8944;-73
2023/04/19 14:05:31;;;;;;;;;6.25;5.75;;;;;;;;5077123;28;8824;-72
2023/04/19 14:07:58;;;;;;;;;7.50;7.50;;;;;;;;5078761;28;8846;-72
2023/04/19 14:10:25;;;;;;;;;4.75;4.75;;;;;;;;5082392;28;8840;-72
2023/04/19 14:12:53;;;;;;;;;4.75;4.75;;;;;;;;5069491;28;8858;-72
2023/04/19 14:15:22;;;;;;;;;7.25;7.25;;;;;;;;5073609;28;8839;-73
2023/04/19 14:17:50;;;;;;;;;4.00;4.00;;;;;;;;5077698;28;8849;-72
2023/04/19 14:20:18;;;;;;;;;3.50;3.50;;;;;;;;5074892;28;8827;-74
2023/04/19 14:22:46;;;;;;;;;5.50;5.25;;;;;;;;5069549;28;8880;-72
2023/04/19 14:25:15;;;;;;;;;5.00;5.00;;;;;;;;5083003;28;8856;-72
2023/04/19 14:27:42;;;;;;;;;5.25;5.25;;;;;;;;5077900;28;8926;-75
2023/04/19 14:30:10;;;;;;;;;5.25;5.25;;;;;;;;5081900;28;8808;-77
2023/04/19 14:32:37;;;;;;;;;6.25;6.00;;;;;;;;5078339;28;8846;-72
2023/04/19 14:35:07;;;;;;;;;8.25;6.75;;;;;;;;5083621;28;8920;-76
2023/04/19 14:37:35;;;;;;;;;6.00;4.25;;;;;;;;5066998;28;8828;-75